Time;durP1;ratioP1;P1;durP2;ratioP2;P2;SDS_P1;SDS_P2;PMS_P1;PMS_P2;Temp;Humidity;BMP_temperature;BMP_pressure;BME280_temperature;BME280_humidity;BME280_pressure;Samples;Min_cycle;Max_cycle;Signal;HPM_P1;HPM_P2
2023/01/24 07:00:53;;;;;;;;;6.50;5.50;;;;;18.02;42.03;103107.41;5081122;27;45510;-70
2023/01/24 07:03:18;;;;;;;;;6.75;6.75;;;;;18.41;42.67;103107.38;5063338;27;45841;-69
2023/01/24 07:05:43;;;;;;;;;7.00;7.00;;;;;18.99;43.05;103116.09;5070040;27;45490;-69
2023/01/24 07:08:09;;;;;;;;;10.25;6.00;;;;;19.58;42.91;103106.75;5067414;27;45707;-67
2023/01/24 07:10:34;;;;;;;;;8.50;7.00;;;;;20.25;42.84;103109.31;5071643;27;45578;-71
2023/01/24 07:12:59;;;;;;;;;5.25;5.25;;;;;20.84;42.48;103109.53;5067953;27;45514;-71
2023/01/24 07:15:25;;;;;;;;;9.25;8.75;;;;;21.35;42.32;103119.94;5069161;28;45714;-71
2023/01/24 07:17:50;;;;;;;;;5.75;5.75;;;;;21.77;42.22;103116.44;5067248;28;45507;-71
2023/01/24 07:20:16;;;;;;;;;12.75;9.50;;;;;22.17;41.81;103112.97;5069478;28;46439;-71
2023/01/24 07:22:42;;;;;;;;;7.00;7.00;;;;;22.49;41.76;103102.66;5066859;28;45485;-71
2023/01/24 07:25:15;;;;;;;;;6.75;6.75;;;;;22.80;41.73;103105.16;5070471;28;45371;-71
2023/01/24 07:27:45;;;;;;;;;7.25;7.00;;;;;23.09;40.96;103106.81;5071295;28;45552;-72
2023/01/24 07:30:12;;;;;;;;;6.25;6.25;;;;;23.35;41.11;103104.97;5067428;28;46710;-71
2023/01/24 07:32:37;;;;;;;;;5.00;5.00;;;;;23.60;40.93;103113.16;5068147;28;45439;-71
2023/01/24 07:35:04;;;;;;;;;6.33;5.00;;;;;23.85;40.57;103120.38;5069377;28;45706;-71
2023/01/24 07:37:30;;;;;;;;;7.33;7.00;;;;;24.05;40.43;103116.19;5068391;27;45549;-72
2023/01/24 07:39:56;;;;;;;;;9.00;7.00;;;;;24.27;40.24;103136.28;5068180;27;45391;-71
2023/01/24 07:42:21;;;;;;;;;7.00;5.67;;;;;24.42;40.42;103115.28;5069361;28;46095;-71
2023/01/24 07:44:47;;;;;;;;;8.00;8.00;;;;;24.59;40.01;103129.41;5076459;27;45477;-71
2023/01/24 07:47:12;;;;;;;;;8.00;8.00;;;;;24.78;39.78;103134.28;5070159;27;45447;-71
2023/01/24 07:49:37;;;;;;;;;10.67;8.33;;;;;24.88;40.11;103136.31;5074394;27;45391;-72
2023/01/24 07:52:03;;;;;;;;;6.33;5.33;;;;;24.92;39.51;103118.75;5070267;27;45620;-70
2023/01/24 07:54:28;;;;;;;;;7.33;6.33;;;;;25.07;39.28;103122.13;5068587;27;46175;-69
2023/01/24 07:56:53;;;;;;;;;8.33;7.00;;;;;25.11;39.08;103116.34;5060999;27;45316;-71
2023/01/24 07:59:19;;;;;;;;;6.00;6.00;;;;;25.34;38.97;103146.25;5075741;27;46579;-71
2023/01/24 08:01:44;;;;;;;;;5.67;5.00;;;;;25.36;38.51;103140.69;5078414;27;45562;-70
2023/01/24 08:04:09;;;;;;;;;7.67;6.00;;;;;25.39;38.65;103137.72;5079879;27;45685;-69
2023/01/24 08:06:35;;;;;;;;;10.00;8.00;;;;;25.38;38.71;103131.41;5093584;27;45497;-72
2023/01/24 08:09:00;;;;;;;;;8.33;7.00;;;;;25.48;38.33;103138.84;5086142;27;45526;-71
2023/01/24 08:11:26;;;;;;;;;7.33;6.33;;;;;25.56;38.74;103149.13;5077606;27;45596;-70
2023/01/24 08:13:51;;;;;;;;;8.00;5.33;;;;;25.58;38.27;103136.28;5076069;28;45431;-69
2023/01/24 08:16:18;;;;;;;;;6.67;6.67;;;;;25.68;38.21;103145.41;5075859;28;45724;-69
2023/01/24 08:18:44;;;;;;;;;8.00;8.00;;;;;25.78;38.59;103157.25;5066854;27;45803;-68
2023/01/24 08:21:09;;;;;;;;;25.33;21.67;;;;;25.71;38.38;103128.81;5074911;28;45461;-71
2023/01/24 08:23:35;;;;;;;;;38.50;32.75;;;;;25.90;37.92;103160.84;5068881;27;45507;-70
2023/01/24 08:26:02;;;;;;;;;69.50;53.75;;;;;25.77;37.95;103138.34;5075009;27;45606;-69
2023/01/24 08:28:29;;;;;;;;;73.50;59.00;;;;;25.68;37.41;103148.13;5073499;27;46108;-70
2023/01/24 08:30:57;;;;;;;;;75.75;59.75;;;;;25.72;37.22;103152.34;5076256;27;45564;-68
2023/01/24 08:33:22;;;;;;;;;72.50;58.50;;;;;25.65;37.43;103151.09;5077268;27;45558;-67
2023/01/24 08:35:48;;;;;;;;;69.00;52.75;;;;;25.66;37.60;103158.25;5062653;28;45590;-66
2023/01/24 08:38:15;;;;;;;;;75.25;54.50;;;;;25.70;37.32;103162.47;5066887;27;46403;-67
2023/01/24 08:40:41;;;;;;;;;70.25;54.75;;;;;25.70;37.60;103176.06;5063780;28;45440;-66
2023/01/24 08:43:07;;;;;;;;;68.00;52.75;;;;;25.83;36.94;103188.66;5074217;27;45453;-67
2023/01/24 08:45:32;;;;;;;;;66.75;51.50;;;;;25.78;37.03;103180.88;5068353;27;45353;-66
2023/01/24 08:47:58;;;;;;;;;66.75;52.25;;;;;25.85;36.93;103193.00;5074869;27;45519;-66
2023/01/24 08:50:23;;;;;;;;;64.50;51.25;;;;;25.88;36.76;103198.16;5055422;28;45375;-66
2023/01/24 08:52:49;;;;;;;;;60.00;50.00;;;;;25.78;37.00;103192.63;5068620;27;45590;-66
2023/01/24 08:55:15;;;;;;;;;66.25;50.25;;;;;25.76;36.90;103188.31;5069392;27;45851;-67
2023/01/24 08:57:40;;;;;;;;;62.25;49.25;;;;;25.78;36.68;103186.31;5075073;28;45440;-67
2023/01/24 09:00:06;;;;;;;;;65.00;49.50;;;;;25.79;37.18;103197.06;5073173;27;45773;-67
2023/01/24 09:02:37;;;;;;;;;62.75;48.50;;;;;25.84;37.13;103204.00;5062340;27;45495;-67
2023/01/24 09:05:07;;;;;;;;;61.00;47.00;;;;;25.90;37.16;103207.09;5076043;27;45616;-67
2023/01/24 09:07:36;;;;;;;;;62.00;49.25;;;;;25.97;37.09;103212.00;5075743;27;46337;-67
2023/01/24 09:10:02;;;;;;;;;56.25;46.75;;;;;26.07;36.62;103214.84;5070524;27;45305;-68
2023/01/24 09:12:28;;;;;;;;;62.25;49.75;;;;;26.21;36.70;103230.91;5063628;27;45424;-68
2023/01/24 09:14:53;;;;;;;;;58.50;46.75;;;;;26.10;37.06;103195.53;5063367;28;45563;-69
2023/01/24 09:17:19;;;;;;;;;61.00;49.50;;;;;26.30;36.62;103219.28;5075965;28;46261;-69
2023/01/24 09:19:44;;;;;;;;;120.00;106.33;;;;;26.34;36.21;103219.91;5073245;28;45416;-70
2023/01/24 09:22:09;;;;;;;;;121.25;110.00;;;;;26.34;36.45;103227.19;5073398;28;45427;-70
2023/01/24 09:24:35;;;;;;;;;124.67;115.00;;;;;26.28;36.37;103228.59;5067907;28;45447;-69
2023/01/24 09:27:00;;;;;;;;;128.33;110.33;;;;;26.17;35.96;103224.00;5066445;28;53219;-67
2023/01/24 09:29:25;;;;;;;;;125.33;112.00;;;;;26.11;36.01;103222.63;5065990;27;45562;-69
2023/01/24 09:31:54;;;;;;;;;122.00;111.33;;;;;26.07;36.40;103231.19;5062560;28;47730;-69
2023/01/24 09:34:20;;;;;;;;;112.00;99.33;;;;;26.02;36.24;103228.81;5073021;28;45436;-69
2023/01/24 09:36:47;;;;;;;;;117.67;106.00;;;;;26.01;35.95;103229.81;5074473;27;46964;-70
2023/01/24 09:39:12;;;;;;;;;113.67;104.33;;;;;25.96;35.95;103232.06;5075663;27;45713;-68
2023/01/24 09:42:08;;;;;;;;;110.33;100.33;;;;;25.94;35.94;103223.16;5075759;27;48268;-69
2023/01/24 09:44:44;;;;;;;;;104.33;97.33;;;;;25.90;35.80;103225.25;5069595;28;45579;-67
2023/01/24 09:47:18;;;;;;;;;106.00;95.67;;;;;25.89;35.93;103227.13;5074762;27;46013;-68
2023/01/24 09:49:52;;;;;;;;;101.00;91.33;;;;;25.91;35.94;103230.56;5060622;28;45644;-67
2023/01/24 09:52:31;;;;;;;;;99.67;92.33;;;;;25.95;36.24;103231.19;5068798;28;45708;-67
2023/01/24 09:55:03;;;;;;;;;100.00;90.67;;;;;26.00;35.99;103239.84;5060270;28;46173;-67
2023/01/24 09:58:11;;;;;;;;;92.00;87.00;;;;;26.07;35.81;103245.63;5067885;28;46556;-67
2023/01/24 10:00:38;;;;;;;;;85.33;83.33;;;;;26.13;35.88;103241.56;5067475;28;45455;-68
2023/01/24 10:03:18;;;;;;;;;88.25;80.50;;;;;26.21;35.89;103251.81;5067376;28;45447;-68
2023/01/24 10:05:47;;;;;;;;;82.25;72.00;;;;;26.26;35.56;103242.31;5054799;27;45356;-68
2023/01/24 10:08:25;;;;;;;;;85.25;74.50;;;;;26.29;36.02;103247.50;5062843;28;46089;-67
2023/01/24 10:11:24;;;;;;;;;83.50;75.00;;;;;26.33;35.57;103255.41;5065082;28;45394;-65
2023/01/24 10:14:20;;;;;;;;;82.50;73.50;;;;;26.28;35.74;103245.75;5067075;27;45525;-68
2023/01/24 10:16:56;;;;;;;;;80.75;72.50;;;;;26.36;35.77;103236.97;4973759;28;45466;-68
2023/01/24 10:19:47;;;;;;;;;79.25;69.50;;;;;26.36;35.30;103239.69;4991464;28;46777;-66
2023/01/24 10:22:33;;;;;;;;;77.50;65.00;;;;;26.34;35.67;103236.22;4987802;28;45370;-68
2023/01/24 10:25:24;;;;;;;;;73.50;63.00;;;;;26.31;35.16;103233.75;4989810;28;45466;-69
2023/01/24 10:27:55;;;;;;;;;77.50;64.00;;;;;26.23;35.69;103222.63;4978464;28;45961;-68
2023/01/24 10:30:26;;;;;;;;;76.00;62.25;;;;;26.24;35.66;103236.09;4991339;28;46269;-69
2023/01/24 10:32:59;;;;;;;;;70.00;55.75;;;;;26.18;35.69;103223.00;4993083;28;45402;-68
2023/01/24 10:35:51;;;;;;;;;72.50;58.00;;;;;26.18;35.53;103221.16;4991468;28;45517;-69
2023/01/24 10:38:18;;;;;;;;;71.75;59.75;;;;;26.18;35.36;103223.88;4990983;28;45411;-68
2023/01/24 10:41:04;;;;;;;;;70.25;55.75;;;;;26.21;35.42;103216.44;4989057;28;46375;-69
2023/01/24 10:43:32;;;;;;;;;73.75;56.25;;;;;26.20;35.16;103218.31;4990745;28;45530;-67
2023/01/24 10:46:00;;;;;;;;;68.00;54.75;;;;;26.21;35.20;103216.44;4989358;28;45673;-67
2023/01/24 10:48:43;;;;;;;;;68.25;54.50;;;;;26.21;35.00;103210.97;4989923;28;45489;-68
2023/01/24 10:51:17;;;;;;;;;69.75;55.25;;;;;26.22;35.19;103216.31;4992441;28;45928;-68
2023/01/24 10:53:43;;;;;;;;;66.25;53.25;;;;;26.23;35.39;103207.16;5025153;27;45391;-70
2023/01/24 10:56:09;;;;;;;;;81.25;73.00;;;;;26.23;35.16;103204.41;5080659;27;45436;-70
2023/01/24 10:59:00;;;;;;;;;75.25;62.75;;;;;26.20;34.76;103193.81;5073085;27;45592;-70
2023/01/24 11:01:37;;;;;;;;;75.75;60.25;;;;;26.21;34.85;103200.09;5061458;28;46294;-70
2023/01/24 11:04:31;;;;;;;;;74.50;61.50;;;;;26.15;35.18;103199.63;5074532;28;45834;-70
2023/01/24 11:06:56;;;;;;;;;76.00;60.50;;;;;26.17;35.28;103205.78;5043669;28;45394;-70
2023/01/24 11:09:30;;;;;;;;;73.50;56.75;;;;;26.17;34.81;103197.63;5072961;28;45310;-69
2023/01/24 11:11:59;;;;;;;;;70.25;57.75;;;;;26.19;34.72;103205.66;5067650;28;47320;-70
2023/01/24 11:14:27;;;;;;;;;69.25;54.50;;;;;26.17;34.96;103207.66;5073225;27;45561;-70
2023/01/24 11:16:57;;;;;;;;;69.75;54.75;;;;;26.09;34.53;103199.25;5069397;27;45840;-70
2023/01/24 11:19:33;;;;;;;;;67.25;52.75;;;;;26.04;34.30;103200.50;5064959;27;45734;-70
2023/01/24 11:22:21;;;;;;;;;69.50;54.00;;;;;26.00;34.74;103201.75;5071663;27;45509;-71
2023/01/24 11:24:47;;;;;;;;;71.00;55.25;;;;;25.99;34.62;103197.28;5068325;27;45424;-70
2023/01/24 11:27:15;;;;;;;;;68.75;52.75;;;;;26.00;34.39;103182.69;5068127;27;45550;-66
2023/01/24 11:29:41;;;;;;;;;69.25;56.00;;;;;26.02;34.53;103188.88;5071874;27;45493;-67
2023/01/24 11:32:36;;;;;;;;;69.50;54.50;;;;;26.07;34.81;103187.66;5072769;27;45776;-67
2023/01/24 11:35:10;;;;;;;;;66.25;53.00;;;;;26.08;34.45;103182.09;5071561;28;45296;-67
2023/01/24 11:37:59;;;;;;;;;64.25;52.50;;;;;26.07;34.58;103174.03;5071100;28;45728;-66
2023/01/24 11:40:40;;;;;;;;;66.25;52.50;;;;;26.13;34.51;103177.13;5064441;28;45512;-67
2023/01/24 11:43:36;;;;;;;;;63.50;50.75;;;;;26.14;34.29;103184.28;5071994;28;46420;-67
2023/01/24 11:46:21;;;;;;;;;66.25;51.50;;;;;26.15;34.67;103194.19;5072686;28;45345;-67
2023/01/24 11:48:56;;;;;;;;;59.75;47.75;;;;;26.14;34.26;103188.84;5073797;28;45511;-68
2023/01/24 11:51:43;;;;;;;;;63.75;49.75;;;;;26.13;34.19;103181.69;5075611;28;46539;-69
2023/01/24 11:54:29;;;;;;;;;64.50;49.50;;;;;26.10;34.56;103171.91;5072681;27;46270;-68
2023/01/24 11:57:16;;;;;;;;;60.50;49.00;;;;;26.05;34.49;103183.22;5070916;28;45535;-67
2023/01/24 12:00:16;;;;;;;;;57.00;45.75;;;;;26.02;34.68;103171.69;5067278;28;45636;-67
2023/01/24 12:03:16;;;;;;;;;54.00;45.75;;;;;25.99;34.40;103170.09;5073400;28;45449;-67
2023/01/24 12:05:56;;;;;;;;;59.25;47.50;;;;;26.02;34.79;103172.56;5055975;28;47691;-67
2023/01/24 12:08:50;;;;;;;;;59.75;45.75;;;;;26.05;34.48;103171.44;5073015;28;45570;-67
2023/01/24 12:11:40;;;;;;;;;62.75;47.50;;;;;26.09;34.29;103159.31;5076285;28;45446;-67
2023/01/24 12:14:41;;;;;;;;;57.00;46.75;;;;;26.13;34.54;103158.06;5071726;28;45542;-67
2023/01/24 12:17:25;;;;;;;;;58.25;45.50;;;;;26.14;34.56;103151.63;5050744;28;47178;-69
2023/01/24 12:19:57;;;;;;;;;52.00;42.00;;;;;26.18;34.51;103152.22;5088806;27;45300;-70
2023/01/24 12:22:24;;;;;;;;;57.25;44.50;;;;;26.14;34.21;103151.63;5065829;28;45417;-69
2023/01/24 12:25:05;;;;;;;;;56.50;44.00;;;;;26.14;34.34;103142.59;5076576;28;45491;-70
2023/01/24 12:27:35;;;;;;;;;54.00;44.25;;;;;26.13;34.49;103149.91;5076644;28;46318;-70
2023/01/24 12:30:20;;;;;;;;;56.50;43.00;;;;;26.14;34.48;103146.19;5075426;28;45786;-70
2023/01/24 12:32:54;;;;;;;;;58.50;46.00;;;;;26.12;33.98;103148.16;5073530;27;45396;-70
2023/01/24 13:43:36;;;;;;;;;45.75;34.25;;;;;19.90;36.44;103127.47;5080805;27;45436;-69
2023/01/24 13:46:02;;;;;;;;;48.00;38.25;;;;;20.16;37.22;103126.03;5066990;28;45511;-69
2023/01/24 13:48:39;;;;;;;;;46.25;39.00;;;;;20.65;37.43;103126.81;5064925;27;45434;-67
2023/01/24 13:51:16;;;;;;;;;47.00;38.50;;;;;21.17;37.06;103124.66;5058572;28;45494;-67
2023/01/24 13:53:59;;;;;;;;;41.75;37.00;;;;;21.68;37.64;103126.88;5069884;28;46101;-67
2023/01/24 13:56:25;;;;;;;;;45.00;32.00;;;;;22.12;37.39;103129.50;5070560;28;45505;-67
2023/01/24 13:58:53;;;;;;;;;45.50;36.75;;;;;22.49;37.35;103127.03;5072389;27;45543;-66
2023/01/24 14:01:19;;;;;;;;;44.25;34.25;;;;;22.81;36.84;103123.13;5067046;27;45503;-67
2023/01/24 14:03:58;;;;;;;;;29.00;28.00;;;;;23.11;37.05;103137.34;5069835;27;47025;-66
2023/01/24 14:06:25;;;;;;;;;42.75;33.75;;;;;23.32;36.62;103134.97;5068844;27;45687;-67
2023/01/24 14:09:12;;;;;;;;;38.50;31.75;;;;;23.55;36.45;103136.03;5070503;27;45522;-67
2023/01/24 14:11:39;;;;;;;;;40.75;33.25;;;;;23.75;36.43;103139.16;5070501;28;45432;-67
2023/01/24 14:14:27;;;;;;;;;36.50;31.75;;;;;23.91;36.19;103138.91;5070531;28;45395;-68
2023/01/24 14:16:52;;;;;;;;;40.75;34.00;;;;;24.07;35.98;103141.34;5065956;28;45711;-67
2023/01/24 14:19:28;;;;;;;;;36.50;33.00;;;;;24.19;35.85;103128.72;5066353;28;45412;-67
2023/01/24 14:22:15;;;;;;;;;37.50;31.25;;;;;24.31;35.94;103139.63;5066449;28;45471;-69
2023/01/24 14:25:05;;;;;;;;;40.50;31.75;;;;;24.44;35.76;103131.44;5066808;28;45788;-69
2023/01/24 14:27:37;;;;;;;;;36.00;31.25;;;;;24.54;35.94;103128.88;5068668;27;45483;-67
2023/01/24 14:30:17;;;;;;;;;37.50;31.00;;;;;24.64;35.67;103137.19;5068111;27;45742;-67
2023/01/24 14:32:42;;;;;;;;;39.25;31.00;;;;;24.70;35.62;103145.75;5069546;27;45469;-70
2023/01/24 14:35:20;;;;;;;;;55.75;40.50;;;;;24.76;35.79;103138.09;5064074;28;45678;-68
2023/01/24 14:37:47;;;;;;;;;47.75;38.50;;;;;24.79;35.28;103132.41;5059201;28;45478;-69
2023/01/24 14:40:30;;;;;;;;;47.00;36.75;;;;;24.83;35.42;103148.41;5066891;28;45405;-68
2023/01/24 14:43:02;;;;;;;;;48.25;38.25;;;;;24.88;35.19;103137.16;5066662;28;45496;-68
2023/01/24 14:45:29;;;;;;;;;42.00;34.50;;;;;24.90;35.53;103137.94;5068535;28;45431;-68
2023/01/24 14:47:57;;;;;;;;;47.00;33.25;;;;;24.92;35.41;103141.38;5055994;28;45597;-68
2023/01/24 14:50:25;;;;;;;;;42.00;35.50;;;;;24.96;35.41;103142.00;5065201;28;45453;-69
2023/01/24 14:52:51;;;;;;;;;41.50;32.50;;;;;25.00;35.28;103144.38;5063268;28;45814;-68
2023/01/24 14:55:16;;;;;;;;;40.50;34.00;;;;;25.04;35.29;103142.25;5042881;28;46220;-68
2023/01/24 14:57:42;;;;;;;;;42.00;35.25;;;;;25.06;35.22;103139.44;5055658;28;45420;-68
2023/01/24 15:00:10;;;;;;;;;36.50;31.00;;;;;25.12;34.93;103142.53;5054603;28;45659;-70
2023/01/24 15:02:37;;;;;;;;;37.25;33.75;;;;;25.13;35.07;103136.09;5050945;28;45549;-71
2023/01/24 15:05:23;;;;;;;;;45.75;38.75;;;;;25.18;35.16;103145.75;5054332;28;45435;-71
2023/01/24 15:07:48;;;;;;;;;46.25;35.25;;;;;25.18;35.53;103152.03;5067215;28;46178;-71
2023/01/24 15:10:14;;;;;;;;;53.00;42.25;;;;;25.16;34.78;103154.00;5052368;28;45309;-68
2023/01/24 15:12:40;;;;;;;;;51.75;40.75;;;;;25.13;34.92;103155.13;5055355;28;45404;-68
2023/01/24 15:15:15;;;;;;;;;47.50;37.50;;;;;25.12;34.96;103156.13;5042570;28;45367;-67
2023/01/24 15:17:47;;;;;;;;;54.75;40.50;;;;;25.11;35.06;103153.50;5048301;28;45567;-68
2023/01/24 15:20:19;;;;;;;;;47.00;37.75;;;;;25.11;34.75;103154.38;5049596;28;45427;-68
2023/01/24 15:22:51;;;;;;;;;39.50;33.50;;;;;25.12;35.08;103156.13;5039600;28;45579;-68
2023/01/24 15:25:20;;;;;;;;;51.25;39.25;;;;;25.12;34.77;103163.38;5049527;28;46124;-67
2023/01/24 15:27:45;;;;;;;;;47.50;36.75;;;;;25.12;35.08;103164.28;5054834;28;45607;-68
2023/01/24 15:30:20;;;;;;;;;49.50;36.75;;;;;25.12;34.98;103163.38;5051496;28;45444;-66
2023/01/24 15:32:49;;;;;;;;;47.75;38.50;;;;;25.12;35.18;103161.56;5055956;28;45356;-68
2023/01/24 15:35:33;;;;;;;;;45.75;38.25;;;;;25.07;34.84;103157.47;5051586;28;47228;-69
2023/01/24 15:37:59;;;;;;;;;49.75;38.75;;;;;25.09;35.35;103167.22;5042424;28;45634;-69
2023/01/24 15:40:24;;;;;;;;;39.50;32.50;;;;;25.09;34.95;103169.09;5055725;28;45950;-68
2023/01/24 15:45:37;;;;;;;;;44.50;36.50;;;;;25.07;34.68;103168.31;5044301;28;45904;-68
2023/01/24 15:48:21;;;;;;;;;42.50;34.75;;;;;25.05;34.47;103162.16;5049022;28;46566;-66
2023/01/24 15:51:09;;;;;;;;;51.25;38.25;;;;;25.05;34.57;103167.59;5039589;28;45424;-67
2023/01/24 15:53:43;;;;;;;;;46.50;36.75;;;;;25.07;34.76;103160.16;5054036;28;45461;-67
2023/01/24 15:56:16;;;;;;;;;38.25;35.00;;;;;25.08;34.68;103162.78;5053730;28;45426;-67
2023/01/24 15:58:41;;;;;;;;;44.00;35.00;;;;;25.07;34.92;103155.63;5051429;28;45569;-69
2023/01/24 16:01:07;;;;;;;;;44.25;34.75;;;;;25.18;34.81;103162.06;5052703;28;45485;-69
2023/01/24 16:03:32;;;;;;;;;42.50;34.50;;;;;25.22;35.16;103166.25;5051952;28;45471;-68
2023/01/24 16:05:58;;;;;;;;;45.25;36.50;;;;;25.25;34.46;103161.44;5054191;28;45739;-69
2023/01/24 16:08:25;;;;;;;;;44.00;33.00;;;;;25.37;34.56;103165.03;5045003;28;45672;-69
2023/01/24 16:10:55;;;;;;;;;43.00;32.75;;;;;25.42;35.09;103164.66;5055589;28;45481;-69
2023/01/24 16:13:44;;;;;;;;;38.00;31.00;;;;;25.51;34.76;103171.22;5046805;28;45536;-67
2023/01/24 16:16:13;;;;;;;;;36.25;31.25;;;;;25.58;34.59;103175.19;5055046;28;46256;-67
2023/01/24 16:18:40;;;;;;;;;41.50;33.25;;;;;25.62;34.67;103173.97;5053664;28;45378;-67
2023/01/24 16:21:06;;;;;;;;;39.00;33.00;;;;;25.70;34.77;103176.06;5050602;28;46490;-66
2023/01/24 16:23:31;;;;;;;;;43.00;32.00;;;;;25.77;34.88;103173.69;5050181;28;45709;-66
2023/01/24 16:25:56;;;;;;;;;48.00;37.75;;;;;25.82;34.56;103173.34;5056949;28;46843;-68
2023/01/24 16:28:25;;;;;;;;;35.00;30.25;;;;;25.86;34.88;103180.25;5051037;28;45510;-69
2023/01/24 16:30:51;;;;;;;;;37.00;32.50;;;;;25.88;34.98;103178.28;5046648;28;45540;-69
2023/01/24 16:33:18;;;;;;;;;36.75;33.50;;;;;25.93;34.13;103181.47;5038002;28;45850;-68
2023/01/24 16:35:45;;;;;;;;;37.25;32.25;;;;;25.96;34.77;103188.53;5050265;28;45470;-70
2023/01/24 16:38:13;;;;;;;;;37.75;33.00;;;;;25.96;34.40;103194.84;5049097;28;45456;-67
2023/01/24 16:40:39;;;;;;;;;43.75;34.25;;;;;25.92;34.52;103191.47;5039412;28;46472;-66
2023/01/24 16:43:06;;;;;;;;;42.25;34.00;;;;;25.90;34.19;103185.31;5057361;28;45475;-68
2023/01/24 16:45:32;;;;;;;;;43.50;34.00;;;;;25.90;34.22;103189.88;5058563;28;47289;-67
2023/01/24 16:47:57;;;;;;;;;42.00;34.00;;;;;25.91;34.45;103195.19;5047124;27;45672;-68
2023/01/24 16:50:23;;;;;;;;;34.00;30.50;;;;;25.94;34.66;103187.81;5046956;28;45739;-68
2023/01/24 16:52:48;;;;;;;;;39.25;32.75;;;;;25.96;34.38;103193.97;5048776;28;45572;-67
2023/01/24 16:55:14;;;;;;;;;48.50;36.00;;;;;25.94;34.34;103193.25;5050428;28;46681;-69
2023/01/24 16:57:39;;;;;;;;;39.25;35.00;;;;;25.90;33.91;103200.75;5040416;28;45387;-68
2023/01/24 17:00:11;;;;;;;;;41.50;34.00;;;;;25.83;34.11;103196.84;5048873;28;45681;-68
2023/01/24 17:02:37;;;;;;;;;38.00;32.00;;;;;25.71;33.71;103187.81;5041146;28;45348;-68
2023/01/24 17:05:02;;;;;;;;;44.25;36.25;;;;;25.69;34.27;103197.94;5049033;28;45384;-68
2023/01/24 17:07:28;;;;;;;;;40.25;33.75;;;;;25.64;33.83;103206.47;5043028;28;45660;-68
2023/01/24 17:09:53;;;;;;;;;44.25;36.50;;;;;25.57;33.56;103205.22;5050156;28;45784;-67
2023/01/24 17:12:18;;;;;;;;;38.00;33.00;;;;;25.52;33.77;103203.72;5044887;28;45486;-67
2023/01/24 17:14:44;;;;;;;;;34.75;29.50;;;;;25.48;34.09;103204.97;5039908;28;46147;-68
2023/01/24 17:17:10;;;;;;;;;47.25;35.25;;;;;25.44;33.79;103198.03;5038056;28;45551;-68
2023/01/24 17:19:36;;;;;;;;;48.50;38.00;;;;;25.43;33.70;103200.88;5043511;28;45465;-68
2023/01/24 17:22:02;;;;;;;;;48.00;39.50;;;;;25.44;33.28;103199.88;5048244;28;45663;-67
2023/01/24 17:24:28;;;;;;;;;45.00;36.00;;;;;25.41;34.11;103195.53;5050836;28;45971;-69
2023/01/24 17:26:53;;;;;;;;;46.00;35.50;;;;;25.43;33.69;103203.59;5045834;28;45515;-68
2023/01/24 17:29:23;;;;;;;;;43.75;35.00;;;;;25.43;33.60;103204.47;5053596;28;45703;-67
2023/01/24 17:31:48;;;;;;;;;39.50;33.00;;;;;25.44;33.83;103200.75;5049754;28;46428;-68
2023/01/24 17:34:13;;;;;;;;;44.00;35.00;;;;;25.42;33.43;103194.56;5040888;28;45511;-68
2023/01/24 17:36:39;;;;;;;;;44.00;35.75;;;;;25.42;33.77;103196.44;5054954;28;45687;-68
2023/01/24 17:39:06;;;;;;;;;45.25;36.25;;;;;25.42;33.39;103201.88;5047696;28;45384;-68
2023/01/24 17:41:32;;;;;;;;;43.50;35.50;;;;;25.41;33.25;103197.41;5045377;28;45453;-66
2023/01/24 17:43:57;;;;;;;;;45.75;37.25;;;;;25.42;33.46;103201.88;5055526;28;45429;-69
2023/01/24 17:46:22;;;;;;;;;36.25;33.25;;;;;25.37;33.35;103197.66;5044528;28;45473;-70
2023/01/24 17:48:48;;;;;;;;;38.50;33.00;;;;;25.41;33.63;103197.41;5045096;28;45431;-70
2023/01/24 17:51:17;;;;;;;;;39.50;33.50;;;;;25.42;33.53;103199.16;5045499;28;45904;-71
2023/01/24 17:53:43;;;;;;;;;32.50;29.25;;;;;25.44;33.55;103203.47;5047491;28;46528;-70
2023/01/24 17:56:10;;;;;;;;;35.75;31.75;;;;;25.48;33.41;103201.38;5039891;28;45515;-70
2023/01/24 17:58:35;;;;;;;;;34.00;25.25;;;;;25.53;33.38;103201.84;5049099;28;45449;-71
2023/01/24 18:01:01;;;;;;;;;38.75;32.50;;;;;25.57;33.58;103205.22;5047687;28;45340;-70
2023/01/24 18:03:26;;;;;;;;;35.25;31.00;;;;;25.62;33.38;103200.28;5051469;28;46123;-69
2023/01/24 18:05:52;;;;;;;;;34.25;31.00;;;;;25.64;33.31;103207.34;5052542;28;50488;-68
2023/01/24 18:08:19;;;;;;;;;33.25;30.25;;;;;25.71;33.59;103210.41;5045810;28;45411;-68
2023/01/24 18:10:45;;;;;;;;;33.00;28.50;;;;;25.74;33.54;103215.63;5047233;27;45621;-69
2023/01/24 18:13:11;;;;;;;;;33.25;30.75;;;;;25.75;33.34;103205.63;5044980;28;45511;-68
2023/01/24 18:15:36;;;;;;;;;33.75;31.25;;;;;25.77;33.74;103215.38;5041304;28;45830;-69
2023/01/24 18:18:02;;;;;;;;;32.50;30.25;;;;;25.80;33.33;103211.53;5051509;28;45415;-69
2023/01/24 18:20:27;;;;;;;;;30.50;27.25;;;;;25.81;33.47;103212.41;5048599;28;47156;-68
2023/01/24 18:22:53;;;;;;;;;27.25;25.75;;;;;25.80;33.86;103208.81;5034731;28;46313;-67
2023/01/24 18:25:20;;;;;;;;;32.00;27.25;;;;;25.82;33.36;103215.00;5047359;28;45478;-68
2023/01/24 18:27:45;;;;;;;;;30.75;27.25;;;;;25.81;33.32;103221.44;5052533;28;45422;-68
2023/01/24 18:30:12;;;;;;;;;34.50;30.75;;;;;25.81;33.44;103213.28;5046883;28;45355;-72
2023/01/24 18:32:38;;;;;;;;;32.00;29.75;;;;;25.77;33.17;103211.78;5042016;28;46721;-72
2023/01/24 18:35:04;;;;;;;;;32.00;31.50;;;;;25.73;33.02;103219.34;5049509;28;45372;-75
2023/01/24 18:37:30;;;;;;;;;32.50;30.75;;;;;25.72;33.15;103222.16;5042010;28;45448;-72
2023/01/24 18:39:56;;;;;;;;;37.75;29.75;;;;;25.67;33.23;103222.56;5046518;28;45436;-69
2023/01/24 18:42:21;;;;;;;;;30.50;27.75;;;;;25.59;33.61;103214.13;5052618;28;45420;-69
2023/01/24 18:44:47;;;;;;;;;29.50;28.50;;;;;25.58;33.41;103220.56;5042320;28;45625;-69
2023/01/24 18:47:12;;;;;;;;;33.00;30.25;;;;;25.57;33.33;103218.81;5039834;28;45681;-70
2023/01/24 18:49:37;;;;;;;;;32.00;30.00;;;;;25.54;33.43;103219.91;5046048;28;45675;-70
2023/01/24 18:52:03;;;;;;;;;33.00;30.00;;;;;25.51;33.39;103206.56;5041685;28;46375;-70
2023/01/24 18:54:28;;;;;;;;;27.00;25.50;;;;;25.50;33.46;103213.00;5044848;28;46310;-70
2023/01/24 18:56:53;;;;;;;;;32.50;26.50;;;;;25.48;33.50;103202.25;5043468;28;45416;-70
2023/01/24 18:59:19;;;;;;;;;24.75;22.50;;;;;25.46;33.18;103206.06;5047693;28;45691;-70
2023/01/24 19:01:44;;;;;;;;;33.75;27.50;;;;;25.45;33.41;103205.19;5051675;28;49997;-71
2023/01/24 19:04:09;;;;;;;;;27.25;26.25;;;;;25.48;33.43;103201.38;5045524;28;45389;-70
2023/01/24 19:06:37;;;;;;;;;30.00;27.50;;;;;25.51;33.44;103204.69;5053109;28;46423;-70
2023/01/24 19:09:05;;;;;;;;;32.75;28.75;;;;;25.51;33.51;103201.97;5053538;28;45573;-69
2023/01/24 19:11:36;;;;;;;;;30.50;27.75;;;;;25.51;33.38;103206.56;5048463;28;45447;-68
2023/01/24 19:14:02;;;;;;;;;31.25;25.75;;;;;25.48;33.75;103199.53;5057332;28;47932;-67
2023/01/24 19:16:29;;;;;;;;;30.25;25.50;;;;;25.50;33.25;103207.56;5052373;28;45371;-68
2023/01/24 19:18:54;;;;;;;;;32.75;26.75;;;;;25.50;33.21;103200.25;5053307;28;45365;-69
2023/01/24 19:21:22;;;;;;;;;25.25;24.25;;;;;25.49;33.39;103203.97;5050272;28;45574;-70
2023/01/24 19:23:48;;;;;;;;;28.67;23.67;;;;;25.47;33.33;103205.91;5050505;28;45432;-69
2023/01/24 19:26:15;;;;;;;;;26.33;25.00;;;;;25.46;33.21;103201.47;5043519;28;45302;-69
2023/01/24 19:28:40;;;;;;;;;25.00;20.00;;;;;25.45;33.40;103198.88;5043357;28;45719;-69
2023/01/24 19:31:06;;;;;;;;;27.67;23.67;;;;;25.44;33.38;103195.31;5049855;28;47292;-70
2023/01/24 19:33:32;;;;;;;;;25.50;23.00;;;;;25.45;33.54;103198.88;5047368;28;45547;-69
2023/01/24 19:35:57;;;;;;;;;22.00;22.00;;;;;25.45;33.47;103201.59;5045693;28;45398;-67